createdAt,value
2017-06-16T00:00:03.361Z,99.1
2017-06-16T00:05:03.237Z,99.29
2017-06-16T00:10:02.848Z,99.01
2017-06-16T00:15:03.191Z,98.82
2017-06-16T00:20:03.538Z,99.2
2017-06-16T00:25:02.847Z,98.82
2017-06-16T00:30:03.226Z,98.72
2017-06-16T00:35:03.594Z,97.95
2017-06-16T00:40:03.020Z,97.38
2017-06-16T00:45:03.512Z,97.14
2017-06-16T00:50:02.967Z,96.66
2017-06-16T00:55:03.468Z,96.37
2017-06-16T01:00:02.769Z,95.79
2017-06-16T01:05:03.345Z,94.26
2017-06-16T01:10:02.663Z,93.93
2017-06-16T01:15:03.047Z,92.49
2017-06-16T01:20:03.563Z,91.24
2017-06-16T01:25:03.033Z,90.57
2017-06-16T01:30:03.458Z,90.38
2017-06-16T01:35:02.851Z,87.7
2017-06-16T01:40:03.138Z,88.37
2017-06-16T01:45:02.719Z,87.46
2017-06-16T01:50:03.190Z,86.98
2017-06-16T01:55:02.677Z,86.41
2017-06-16T02:00:03.019Z,86.41
2017-06-16T02:05:03.402Z,85.93
2017-06-16T02:10:02.908Z,85.54
2017-06-16T02:15:03.463Z,84.88
2017-06-16T02:20:02.715Z,84.58
2017-06-16T02:25:03.171Z,84.83
2017-06-16T02:30:02.595Z,84.92
2017-06-16T02:35:03.002Z,84.45
2017-06-16T02:40:03.353Z,84.45
2017-06-16T02:45:02.767Z,84.35
2017-06-16T02:50:03.172Z,83.68
2017-06-16T02:55:03.473Z,82.34
2017-06-16T03:00:02.750Z,82.34
2017-06-16T03:05:03.164Z,81.86
2017-06-16T03:10:02.644Z,81.25
2017-06-16T03:15:03.093Z,80.58
2017-06-16T03:20:03.406Z,79.72
2017-06-16T03:30:03.383Z,79.14
2017-06-16T03:35:02.719Z,78.47
2017-06-16T03:40:03.060Z,78.57
2017-06-16T03:45:03.506Z,78.47
2017-06-16T03:50:02.822Z,77.7
2017-06-16T03:55:03.130Z,77.51
2017-06-16T04:00:03.662Z,77.23
2017-06-16T04:05:02.968Z,77.04
2017-06-16T04:10:03.489Z,76.08
2017-06-16T04:15:02.798Z,76.75
2017-06-16T04:20:03.121Z,77.13
2017-06-16T04:25:03.549Z,77.33
2017-06-16T04:30:03.176Z,77.51
2017-06-16T04:35:03.462Z,77.61
2017-06-16T04:40:02.961Z,77.75
2017-06-16T04:45:03.388Z,78.42
2017-06-16T04:50:02.790Z,78.42
2017-06-16T04:55:03.303Z,78.8
2017-06-16T05:00:02.658Z,79.37
2017-06-16T05:05:02.984Z,80.14
2017-06-16T05:10:03.546Z,80.9
2017-06-16T05:15:03.021Z,82
2017-06-16T05:25:02.854Z,85.25
2017-06-16T05:30:03.178Z,85.83
2017-06-16T05:35:03.436Z,86.25
2017-06-16T05:40:02.868Z,87.21
2017-06-16T05:45:03.294Z,88.17
2017-06-16T05:50:02.703Z,90.52
2017-06-16T06:00:02.804Z,95.07
2017-06-16T06:05:03.137Z,94.02
2017-06-16T06:10:03.474Z,94.98
2017-06-16T06:15:02.734Z,95.65
2017-06-16T06:20:03.185Z,95.31
2017-06-16T06:25:03.556Z,95.41
2017-06-16T06:30:02.999Z,95.65
2017-06-16T06:35:03.357Z,95.46
2017-06-16T06:40:02.692Z,96.03
2017-06-16T06:45:03.159Z,96.37
2017-06-16T06:50:03.569Z,97.33
2017-06-16T06:55:02.935Z,98.53
2017-06-16T07:00:03.225Z,99.35
2017-06-16T07:05:02.627Z,99.99
2017-06-16T07:10:03.176Z,99.99
2017-06-16T07:15:02.628Z,99.99
2017-06-16T07:20:03.142Z,99.99
2017-06-16T07:25:03.481Z,99.99
2017-06-16T07:30:02.759Z,99.99
2017-06-16T07:35:03.198Z,99.99
2017-06-16T07:40:02.635Z,99.99
2017-06-16T07:45:02.914Z,99.99
2017-06-16T07:50:03.186Z,99.99
2017-06-16T07:55:02.616Z,99.99
2017-06-16T08:00:02.927Z,99.99
2017-06-16T08:05:03.306Z,99.99
2017-06-16T08:10:02.671Z,99.99
2017-06-16T08:15:03.055Z,99.99
2017-06-16T08:20:03.562Z,99.99
2017-06-16T08:25:02.931Z,99.99
2017-06-16T08:30:03.265Z,99.99
2017-06-16T08:35:02.641Z,99.99
2017-06-16T08:40:03.193Z,99.99
2017-06-16T08:45:02.629Z,99.99
2017-06-16T08:50:03.026Z,99.99
2017-06-16T08:55:03.597Z,99.99
2017-06-16T09:00:02.937Z,99.99
2017-06-16T09:05:03.392Z,99.99
2017-06-16T09:10:02.805Z,99.99
2017-06-16T09:15:03.379Z,99.99
2017-06-16T09:20:02.634Z,99.99
2017-06-16T09:25:02.962Z,99.99
2017-06-16T09:30:03.374Z,99.99
2017-06-16T09:35:02.795Z,99.99
2017-06-16T09:40:03.270Z,99.99
2017-06-16T09:45:02.708Z,99.99
2017-06-16T09:50:03.024Z,99.99
2017-06-16T09:55:03.502Z,99.99
2017-06-16T10:00:03.007Z,99.99
2017-06-16T10:05:03.505Z,99.99
2017-06-16T10:10:02.955Z,99.99
2017-06-16T10:15:02.696Z,99.99
2017-06-16T10:20:03.269Z,99.99
2017-06-16T10:25:02.626Z,99.99
2017-06-16T10:30:02.953Z,98.29
2017-06-16T10:35:03.407Z,95.07
2017-06-16T10:40:03.177Z,93.29
2017-06-16T10:45:02.629Z,93.38
2017-06-16T10:50:03.488Z,93.48
2017-06-16T10:55:03.015Z,93.53
2017-06-16T11:00:02.820Z,95.02
2017-06-16T11:05:03.387Z,95.94
2017-06-16T11:10:03.550Z,95.26
2017-06-16T11:15:02.680Z,93.96
2017-06-16T11:20:03.486Z,93.33
2017-06-16T11:25:02.785Z,93.15
2017-06-16T11:30:02.882Z,93.77
2017-06-16T11:35:02.643Z,93.91
2017-06-16T11:40:03.482Z,94.21
2017-06-16T11:45:03.269Z,94.59
2017-06-16T11:50:03.069Z,94.01
2017-06-16T11:55:03.181Z,90.78
2017-06-16T12:00:03.439Z,91.17
2017-06-16T12:05:02.979Z,90.16
2017-06-16T12:10:02.737Z,90.64
2017-06-16T12:15:02.720Z,88.91
2017-06-16T12:20:03.433Z,89.72
2017-06-16T12:25:03.452Z,88.47
2017-06-16T12:30:03.287Z,88.71
2017-06-16T12:35:03.373Z,88.81
2017-06-16T12:40:02.824Z,88.14
2017-06-16T12:45:03.178Z,88.67
2017-06-16T12:50:02.638Z,86.78
2017-06-16T12:55:02.991Z,85.1
2017-06-16T13:00:03.433Z,86.79
2017-06-16T13:05:02.968Z,89.44
2017-06-16T13:10:03.427Z,90.65
2017-06-16T13:15:03.018Z,93.77
2017-06-16T13:20:03.467Z,95.03
2017-06-16T13:25:03.376Z,96.08
2017-06-16T13:30:03.038Z,96.22
2017-06-16T13:35:03.250Z,95.12
2017-06-16T13:40:03.161Z,94.25
2017-06-16T13:45:02.802Z,95.6
2017-06-16T13:50:03.414Z,94.25
2017-06-16T13:55:02.791Z,95.02
2017-06-16T14:00:03.271Z,95.5
2017-06-16T14:05:02.943Z,95.31
2017-06-16T14:10:02.676Z,93.77
2017-06-16T14:15:02.830Z,93.15
2017-06-16T14:20:02.574Z,95.55
2017-06-16T14:25:02.731Z,94.59
2017-06-16T14:30:02.825Z,95.7
2017-06-16T14:35:03.335Z,96.56
2017-06-16T14:40:03.290Z,98.63
2017-06-16T14:45:02.764Z,99.35
2017-06-16T14:50:03.034Z,99.99
2017-06-16T14:55:03.417Z,99.99
2017-06-16T15:00:02.585Z,99.99
2017-06-16T15:05:03.489Z,99.99
2017-06-16T15:10:02.974Z,99.99
2017-06-16T15:15:02.995Z,99.99
2017-06-16T15:20:03.054Z,99.99
2017-06-16T15:25:03.349Z,99.99
2017-06-16T15:30:02.907Z,99.99
2017-06-16T15:35:03.460Z,99.99
2017-06-16T15:40:02.998Z,99.99
2017-06-16T15:45:02.812Z,99.99
2017-06-16T15:50:02.900Z,99.99
2017-06-16T15:55:02.730Z,99.99
2017-06-16T16:00:03.561Z,99.99
2017-06-16T16:05:03.088Z,99.99
2017-06-16T16:10:02.641Z,99.99
2017-06-16T16:15:03.295Z,99.99
2017-06-16T16:20:02.936Z,99.99
2017-06-16T16:25:02.769Z,99.99
2017-06-16T16:30:02.836Z,99.99
2017-06-16T16:35:03.477Z,99.99
2017-06-16T16:40:03.005Z,99.99
2017-06-16T16:45:03.366Z,99.99
2017-06-16T16:50:02.706Z,99.99
2017-06-16T16:55:02.979Z,99.99
2017-06-16T17:00:03.331Z,99.99
2017-06-16T17:05:02.747Z,99.99
2017-06-16T17:10:03.130Z,99.99
2017-06-16T17:15:03.422Z,99.99
2017-06-16T17:20:02.835Z,99.97
2017-06-16T17:25:03.260Z,99.1
2017-06-16T17:30:03.562Z,99.99
2017-06-16T17:35:02.966Z,99.99
2017-06-16T17:40:03.388Z,99.99
2017-06-16T17:45:02.681Z,99.99
2017-06-16T17:50:02.975Z,99.99
2017-06-16T17:55:03.372Z,99.99
2017-06-16T18:00:02.818Z,99.99
2017-06-16T18:05:03.178Z,99.99
2017-06-16T18:10:03.572Z,99.99
2017-06-16T18:15:02.948Z,99.99
2017-06-16T18:20:03.293Z,99.99
2017-06-16T18:25:02.618Z,99.99
2017-06-16T18:30:03.051Z,99.99
2017-06-16T18:35:03.450Z,99.99
2017-06-16T18:40:02.823Z,99.99
2017-06-16T18:45:03.114Z,99.99
2017-06-16T18:50:03.582Z,99.99
2017-06-16T18:55:03.051Z,99.99
2017-06-16T19:00:03.496Z,99.99
2017-06-16T19:05:02.819Z,99.99
2017-06-16T19:10:03.398Z,99.99
2017-06-16T19:15:02.755Z,99.99
2017-06-16T19:20:03.110Z,99.99
2017-06-16T19:25:03.574Z,99.99
2017-06-16T19:30:02.929Z,99.99
2017-06-16T19:35:03.390Z,99.99
2017-06-16T19:40:02.825Z,99.99
2017-06-16T19:45:03.236Z,99.99
2017-06-16T19:50:03.532Z,99.99
2017-06-16T19:55:02.849Z,99.99
2017-06-16T20:00:03.163Z,99.99
2017-06-16T20:05:02.618Z,99.99
2017-06-16T20:10:03.058Z,99.99
2017-06-16T20:15:03.451Z,99.99
2017-06-16T20:20:02.849Z,99.99
2017-06-16T20:25:03.164Z,99.99
2017-06-16T20:30:02.542Z,99.99
2017-06-16T20:35:02.850Z,99.99
2017-06-16T20:40:03.210Z,99.99
2017-06-16T20:45:03.503Z,99.99
2017-06-16T20:50:02.856Z,99.99
2017-06-16T20:55:03.263Z,99.99
2017-06-16T21:00:03.044Z,99.99
2017-06-16T21:05:03.347Z,99.99
2017-06-16T21:10:02.814Z,99.99
2017-06-16T21:15:03.160Z,99.99
2017-06-16T21:20:02.599Z,99.99
2017-06-16T21:25:03.106Z,99.99
2017-06-16T21:30:03.467Z,99.99
2017-06-16T21:35:02.811Z,99.99
2017-06-16T21:40:03.200Z,99.99
2017-06-16T21:45:03.491Z,99.95
2017-06-16T21:50:02.940Z,99.23
2017-06-16T21:55:03.367Z,98.75
2017-06-16T22:00:02.651Z,98.28
2017-06-16T22:05:02.978Z,98.08
2017-06-16T22:10:03.414Z,97.71
2017-06-16T22:15:02.843Z,97.08
2017-06-16T22:20:03.294Z,96.7
2017-06-16T22:25:02.666Z,96.42
2017-06-16T22:30:02.932Z,96.03
2017-06-16T22:35:03.190Z,95.56
2017-06-16T22:40:02.600Z,95.08
2017-06-16T22:45:03.027Z,95.08
2017-06-16T22:50:03.483Z,94.79
2017-06-16T22:55:02.763Z,94.51
2017-06-16T23:00:03.375Z,94.12
2017-06-16T23:05:02.817Z,93.55
2017-06-16T23:10:03.199Z,93.46
2017-06-16T23:15:03.497Z,92.79
2017-06-16T23:20:02.902Z,92.17
2017-06-16T23:25:03.221Z,91.6
2017-06-16T23:30:03.508Z,91.88
2017-06-16T23:35:02.945Z,91.6
2017-06-16T23:40:03.435Z,91.5
2017-06-16T23:45:02.789Z,91.41
2017-06-16T23:50:03.095Z,90.83
2017-06-16T23:55:03.402Z,91.02
